createdAt,value
2023-04-09T00:02:23.512Z,26.83
2023-04-09T00:04:54.397Z,29.02
2023-04-09T00:07:27.470Z,28.40
2023-04-09T00:09:56.671Z,28.35
2023-04-09T00:12:25.433Z,29.00
2023-04-09T00:14:55.663Z,29.48
2023-04-09T00:17:28.032Z,29.45
2023-04-09T00:19:57.103Z,30.60
2023-04-09T00:22:27.421Z,31.83
2023-04-09T00:24:57.580Z,32.65
2023-04-09T00:27:26.872Z,32.75
2023-04-09T00:29:56.896Z,31.52
2023-04-09T00:32:27.539Z,32.17
2023-04-09T00:34:56.274Z,31.65
2023-04-09T00:37:24.746Z,31.35
2023-04-09T00:39:54.414Z,31.55
2023-04-09T00:42:28.976Z,32.08
2023-04-09T00:44:57.893Z,33.27
2023-04-09T00:47:32.176Z,31.77
2023-04-09T00:50:02.824Z,31.63
2023-04-09T00:52:34.133Z,33.25
2023-04-09T00:55:06.650Z,32.63
2023-04-09T00:57:36.453Z,33.78
2023-04-09T01:00:07.602Z,33.65
2023-04-09T01:02:38.630Z,35.15
2023-04-09T01:05:09.686Z,34.33
2023-04-09T01:07:57.211Z,35.15
2023-04-09T01:10:39.632Z,33.85
2023-04-09T01:13:19.039Z,34.63
2023-04-09T01:15:54.015Z,33.80
2023-04-09T01:18:32.537Z,33.42
2023-04-09T01:21:08.168Z,35.17
2023-04-09T01:23:49.228Z,33.78
2023-04-09T01:26:31.951Z,33.28
2023-04-09T01:29:04.347Z,34.38
2023-04-09T01:31:38.363Z,35.35
2023-04-09T01:34:10.119Z,35.63
2023-04-09T01:36:41.971Z,34.40
2023-04-09T01:39:11.286Z,36.25
2023-04-09T01:41:42.614Z,36.40
2023-04-09T01:44:17.909Z,35.40
2023-04-09T01:46:49.168Z,35.33
2023-04-09T01:49:21.240Z,36.22
2023-04-09T01:51:50.715Z,35.55
2023-04-09T01:54:20.769Z,37.15
2023-04-09T01:56:50.554Z,34.83
2023-04-09T01:59:21.384Z,36.22
2023-04-09T02:01:56.626Z,35.80
2023-04-09T02:07:09.894Z,34.90
2023-04-09T02:09:44.499Z,36.28
2023-04-09T02:12:17.913Z,35.65
2023-04-09T02:14:53.861Z,35.92
2023-04-09T02:17:22.626Z,34.72
2023-04-09T02:19:52.040Z,37.08
2023-04-09T02:22:21.145Z,35.88
2023-04-09T02:24:52.419Z,38.13
2023-04-09T02:27:21.449Z,36.58
2023-04-09T02:29:56.065Z,36.58
2023-04-09T02:32:25.004Z,36.10
2023-04-09T02:34:54.813Z,36.80
2023-04-09T02:37:26.256Z,35.67
2023-04-09T02:39:55.154Z,34.85
2023-04-09T02:42:24.214Z,36.00
2023-04-09T02:44:56.200Z,38.97
2023-04-09T02:47:26.793Z,36.45
2023-04-09T02:49:58.797Z,37.63
2023-04-09T02:52:27.470Z,36.97
2023-04-09T02:54:56.731Z,38.20
2023-04-09T02:57:27.706Z,37.47
2023-04-09T02:59:58.895Z,36.10
2023-04-09T03:02:28.506Z,36.90
2023-04-09T03:04:58.490Z,36.78
2023-04-09T03:07:27.924Z,35.78
2023-04-09T03:09:56.537Z,37.58
2023-04-09T03:12:26.777Z,35.78
2023-04-09T03:14:56.006Z,36.38
2023-04-09T03:17:27.359Z,36.75
2023-04-09T03:19:56.469Z,36.95
2023-04-09T03:22:26.434Z,35.08
2023-04-09T03:24:57.461Z,37.58
2023-04-09T03:27:26.883Z,36.17
2023-04-09T03:29:57.604Z,36.47
2023-04-09T03:32:28.797Z,36.60
2023-04-09T03:34:59.116Z,36.88
2023-04-09T03:37:30.941Z,36.30
2023-04-09T03:40:04.110Z,37.60
2023-04-09T03:42:35.361Z,35.47
2023-04-09T03:45:05.280Z,33.97
2023-04-09T03:47:37.007Z,35.35
2023-04-09T03:50:06.951Z,36.13
2023-04-09T03:52:35.840Z,35.03
2023-04-09T03:55:06.622Z,34.88
2023-04-09T03:57:35.085Z,34.63
2023-04-09T04:00:04.296Z,35.70
2023-04-09T04:02:34.477Z,34.13
2023-04-09T04:05:07.412Z,37.35
2023-04-09T04:07:37.860Z,33.13
2023-04-09T04:10:08.310Z,35.92
2023-04-09T04:12:37.422Z,35.00
2023-04-09T04:15:09.905Z,37.00
2023-04-09T04:17:38.826Z,34.30
2023-04-09T04:20:13.228Z,33.58
2023-04-09T04:22:42.317Z,33.85
2023-04-09T04:25:12.601Z,34.42
2023-04-09T04:27:43.535Z,32.72
2023-04-09T04:30:14.185Z,34.28
2023-04-09T04:32:43.588Z,33.92
2023-04-09T04:35:14.499Z,35.03
2023-04-09T04:37:43.692Z,34.25
2023-04-09T04:40:12.831Z,32.00
2023-04-09T04:42:44.177Z,34.22
2023-04-09T04:45:13.440Z,31.90
2023-04-09T04:47:43.162Z,32.70
2023-04-09T04:50:14.066Z,33.47
2023-04-09T04:52:43.896Z,31.67
2023-04-09T04:55:13.209Z,33.17
2023-04-09T04:57:43.723Z,33.28
2023-04-09T05:00:16.441Z,33.70
2023-04-09T05:02:46.930Z,34.78
2023-04-09T05:05:19.761Z,34.20
2023-04-09T05:07:50.078Z,33.88
2023-04-09T05:10:19.361Z,34.10
2023-04-09T05:12:48.347Z,33.63
2023-04-09T05:15:18.341Z,34.17
2023-04-09T05:17:49.868Z,33.95
2023-04-09T05:20:22.821Z,33.90
2023-04-09T05:22:52.497Z,34.20
2023-04-09T05:25:21.183Z,33.92
2023-04-09T05:27:50.283Z,33.45
2023-04-09T05:30:19.059Z,32.28
2023-04-09T05:32:50.572Z,33.00
2023-04-09T05:35:22.747Z,31.83
2023-04-09T05:37:51.192Z,31.55
2023-04-09T05:40:23.123Z,30.67
2023-04-09T05:42:51.861Z,31.40
2023-04-09T05:45:22.850Z,32.08
2023-04-09T05:47:53.704Z,30.60
2023-04-09T05:50:24.194Z,29.17
2023-04-09T05:52:54.050Z,29.88
2023-04-09T05:55:24.205Z,29.38
2023-04-09T05:57:54.359Z,30.10
2023-04-09T06:00:22.899Z,29.67
2023-04-09T06:02:54.624Z,30.58
2023-04-09T06:05:25.603Z,29.00
2023-04-09T06:07:53.919Z,28.70
2023-04-09T06:10:23.050Z,29.23
2023-04-09T06:12:52.190Z,29.40
2023-04-09T06:15:22.114Z,27.45
2023-04-09T06:17:51.587Z,30.38
2023-04-09T06:20:20.374Z,30.00
2023-04-09T06:22:51.104Z,30.42
2023-04-09T06:25:21.211Z,33.33
2023-04-09T06:27:51.372Z,29.02
2023-04-09T06:30:20.448Z,30.20
2023-04-09T06:32:54.216Z,29.98
2023-04-09T06:35:25.423Z,30.58
2023-04-09T06:37:58.878Z,29.95
2023-04-09T06:40:28.733Z,28.77
2023-04-09T06:42:57.415Z,28.17
2023-04-09T06:45:26.406Z,29.25
2023-04-09T06:47:55.578Z,26.77
2023-04-09T06:50:24.723Z,27.08
2023-04-09T06:52:56.101Z,27.92
2023-04-09T06:55:26.892Z,28.58
2023-04-09T06:57:55.999Z,26.58
2023-04-09T07:00:28.387Z,27.30
2023-04-09T07:03:00.062Z,27.42
2023-04-09T07:05:29.648Z,26.85
2023-04-09T07:08:00.237Z,26.58
2023-04-09T07:10:29.588Z,28.42
2023-04-09T07:12:58.434Z,28.63
2023-04-09T07:15:27.367Z,27.27
2023-04-09T07:17:57.851Z,27.75
2023-04-09T07:20:28.070Z,29.15
2023-04-09T07:23:01.443Z,27.67
2023-04-09T07:25:30.328Z,28.23
2023-04-09T07:27:58.882Z,29.45
2023-04-09T07:30:28.314Z,28.98
2023-04-09T07:32:57.354Z,27.52
2023-04-09T07:35:25.891Z,29.08
2023-04-09T07:37:54.491Z,30.23
2023-04-09T07:40:27.460Z,29.65
2023-04-09T07:42:56.054Z,30.60
2023-04-09T07:45:24.839Z,30.35
2023-04-09T07:47:56.851Z,31.08
2023-04-09T07:50:26.178Z,29.70
2023-04-09T07:53:00.839Z,29.98
2023-04-09T07:55:34.165Z,29.90
2023-04-09T07:58:05.387Z,30.00
2023-04-09T08:00:34.956Z,29.60
2023-04-09T08:03:04.123Z,29.65
2023-04-09T08:05:32.986Z,30.35
2023-04-09T08:08:01.572Z,29.17
2023-04-09T08:10:31.812Z,29.95
2023-04-09T08:13:00.867Z,29.35
2023-04-09T08:15:31.211Z,30.25
2023-04-09T08:18:03.617Z,28.80
2023-04-09T08:20:33.180Z,28.80
2023-04-09T08:23:02.386Z,28.63
2023-04-09T08:25:32.786Z,28.52
2023-04-09T08:28:01.373Z,28.52
2023-04-09T08:30:34.166Z,29.05
2023-04-09T08:33:03.726Z,29.25
2023-04-09T08:35:35.360Z,27.90
2023-04-09T08:38:04.309Z,29.27
2023-04-09T08:40:38.840Z,28.73
2023-04-09T08:43:09.652Z,27.57
2023-04-09T08:45:41.949Z,27.98
2023-04-09T08:48:12.362Z,26.52
2023-04-09T08:50:46.314Z,28.70
2023-04-09T08:53:17.522Z,25.45
2023-04-09T08:55:48.524Z,27.75
2023-04-09T08:58:19.407Z,27.20
2023-04-09T09:00:49.578Z,26.55
2023-04-09T09:03:21.727Z,27.05
2023-04-09T09:05:51.221Z,28.35
2023-04-09T09:08:27.885Z,28.58
2023-04-09T09:11:00.748Z,28.73
2023-04-09T09:13:30.414Z,27.35
2023-04-09T09:16:16.477Z,26.13
2023-04-09T09:18:46.393Z,27.38
2023-04-09T09:21:16.838Z,26.90
2023-04-09T09:23:48.674Z,27.70
2023-04-09T09:26:27.986Z,28.42
2023-04-09T09:28:58.976Z,28.58
2023-04-09T09:31:33.465Z,28.40
2023-04-09T09:34:11.553Z,28.45
2023-04-09T09:36:41.626Z,27.83
2023-04-09T09:39:12.389Z,27.15
2023-04-09T09:41:43.769Z,26.63
2023-04-09T09:44:32.323Z,26.92
2023-04-09T09:47:03.969Z,27.30
2023-04-09T09:49:32.402Z,26.13
2023-04-09T09:52:06.291Z,26.27
2023-04-09T09:54:44.012Z,26.25
2023-04-09T09:57:18.416Z,27.33
2023-04-09T09:59:55.179Z,26.35
2023-04-09T10:02:27.172Z,26.98
2023-04-09T10:04:55.753Z,26.92
2023-04-09T10:07:26.004Z,25.75
2023-04-09T10:09:58.807Z,27.27
2023-04-09T10:12:31.955Z,25.38
2023-04-09T10:15:04.711Z,26.35
2023-04-09T10:17:34.846Z,25.98
2023-04-09T10:20:17.272Z,27.40
2023-04-09T10:22:52.111Z,25.75
2023-04-09T10:25:22.387Z,26.90
2023-04-09T10:28:03.751Z,24.88
2023-04-09T10:30:36.835Z,26.77
2023-04-09T10:33:13.066Z,25.00
2023-04-09T10:35:44.357Z,24.60
2023-04-09T10:38:16.366Z,24.83
2023-04-09T10:40:51.534Z,24.83
2023-04-09T10:43:24.175Z,24.23
2023-04-09T10:45:57.749Z,24.63
2023-04-09T10:48:27.226Z,23.52
2023-04-09T10:50:56.430Z,23.80
2023-04-09T10:53:30.083Z,23.75
2023-04-09T10:55:58.829Z,24.10
2023-04-09T10:58:31.334Z,24.17
2023-04-09T11:01:04.245Z,23.85
2023-04-09T11:03:43.243Z,23.73
2023-04-09T11:06:19.463Z,24.33
2023-04-09T11:08:48.497Z,22.98
2023-04-09T11:11:18.475Z,23.27
2023-04-09T11:13:49.072Z,21.80
2023-04-09T11:16:24.280Z,21.80
2023-04-09T11:18:57.543Z,21.92
2023-04-09T11:21:31.666Z,22.17
2023-04-09T11:24:00.742Z,22.17
2023-04-09T11:26:38.685Z,21.60
2023-04-09T11:29:12.478Z,19.65
2023-04-09T11:31:45.372Z,19.27
2023-04-09T11:34:14.343Z,17.95
2023-04-09T11:36:43.149Z,17.52
2023-04-09T11:39:13.441Z,17.75
2023-04-09T11:41:42.416Z,16.90
2023-04-09T11:44:22.810Z,16.17
2023-04-09T11:46:53.181Z,17.33
2023-04-09T11:49:22.509Z,18.00
2023-04-09T11:51:55.005Z,17.00
2023-04-09T11:54:23.711Z,18.95
2023-04-09T11:56:56.193Z,19.48
2023-04-09T11:59:28.416Z,16.35
2023-04-09T12:02:00.416Z,16.25
2023-04-09T12:04:30.131Z,16.10
2023-04-09T12:07:00.043Z,15.82
2023-04-09T12:09:31.689Z,15.88
2023-04-09T12:12:02.604Z,13.57
2023-04-09T12:14:34.849Z,14.15
2023-04-09T12:17:03.517Z,14.82
2023-04-09T12:19:32.924Z,12.73
2023-04-09T12:22:02.070Z,13.13
2023-04-09T12:24:31.527Z,12.55
2023-04-09T12:27:01.688Z,13.05
2023-04-09T12:29:33.640Z,13.32
2023-04-09T12:32:03.735Z,11.82
2023-04-09T12:34:32.729Z,11.20
2023-04-09T12:37:01.756Z,10.80
2023-04-09T12:39:33.160Z,11.90
2023-04-09T12:42:06.117Z,12.70
2023-04-09T12:44:40.596Z,11.20
2023-04-09T12:47:09.658Z,12.23
2023-04-09T12:49:39.547Z,11.98
2023-04-09T12:52:11.106Z,12.27
2023-04-09T12:54:41.289Z,13.35
2023-04-09T12:57:10.659Z,12.38
2023-04-09T12:59:41.086Z,11.40
2023-04-09T13:02:09.790Z,11.02
2023-04-09T13:04:38.689Z,10.02
2023-04-09T13:07:08.047Z,10.88
2023-04-09T13:09:37.590Z,10.73
2023-04-09T13:12:08.813Z,9.48
2023-04-09T13:14:42.042Z,11.32
2023-04-09T13:17:11.618Z,10.98
2023-04-09T13:19:42.801Z,10.13
2023-04-09T13:22:12.893Z,10.27
2023-04-09T13:24:43.748Z,9.23
2023-04-09T13:27:16.994Z,9.30
2023-04-09T13:29:47.885Z,10.43
2023-04-09T13:32:18.600Z,10.13
2023-04-09T13:34:47.968Z,10.18
2023-04-09T13:37:17.363Z,9.55
2023-04-09T13:39:47.628Z,10.10
2023-04-09T13:42:19.584Z,9.55
2023-04-09T13:44:53.277Z,10.25
2023-04-09T13:47:25.632Z,9.68
2023-04-09T13:49:54.737Z,9.63
2023-04-09T13:52:24.655Z,9.75
2023-04-09T13:54:54.791Z,10.65
2023-04-09T13:57:23.663Z,10.75
2023-04-09T13:59:54.523Z,9.98
2023-04-09T14:02:25.007Z,10.32
2023-04-09T14:04:54.328Z,10.40
2023-04-09T14:07:23.023Z,9.68
2023-04-09T14:09:52.391Z,10.00
2023-04-09T14:12:21.379Z,10.70
2023-04-09T14:14:50.497Z,9.50
2023-04-09T14:17:20.996Z,10.70
2023-04-09T14:19:51.346Z,9.63
2023-04-09T14:22:20.848Z,10.55
2023-04-09T14:24:51.351Z,9.32
2023-04-09T14:27:19.857Z,9.13
2023-04-09T14:29:49.965Z,9.60
2023-04-09T14:32:23.703Z,9.18
2023-04-09T14:34:53.201Z,9.82
2023-04-09T14:37:23.503Z,9.65
2023-04-09T14:39:52.469Z,10.30
2023-04-09T14:42:21.901Z,11.27
2023-04-09T14:44:51.287Z,9.82
2023-04-09T14:47:22.956Z,28.75
2023-04-09T14:49:52.886Z,120.65
2023-04-09T14:52:27.934Z,12.98
2023-04-09T14:54:57.220Z,9.60
2023-04-09T14:57:27.442Z,9.55
2023-04-09T14:59:56.958Z,10.48
2023-04-09T15:02:28.522Z,9.50
2023-04-09T15:04:58.257Z,10.82
2023-04-09T15:07:27.401Z,9.98
2023-04-09T15:09:56.064Z,9.38
2023-04-09T15:12:26.637Z,9.35
2023-04-09T15:14:57.159Z,9.23
2023-04-09T15:17:29.396Z,9.27
2023-04-09T15:19:58.586Z,9.35
2023-04-09T15:22:27.900Z,9.48
2023-04-09T15:24:56.756Z,9.40
2023-04-09T15:27:31.959Z,9.13
2023-04-09T15:30:01.171Z,9.40
2023-04-09T15:32:42.165Z,8.88
2023-04-09T15:35:19.496Z,9.32
2023-04-09T15:37:50.438Z,9.52
2023-04-09T15:40:19.654Z,9.68
2023-04-09T15:42:49.852Z,10.40
2023-04-09T15:45:21.051Z,12.05
2023-04-09T15:47:54.964Z,8.73
2023-04-09T15:50:25.117Z,8.48
2023-04-09T15:52:57.009Z,17.23
2023-04-09T15:55:26.792Z,8.70
2023-04-09T15:57:56.723Z,8.20
2023-04-09T16:00:30.075Z,9.02
2023-04-09T16:03:02.688Z,10.38
2023-04-09T16:05:34.448Z,8.23
2023-04-09T16:08:04.625Z,9.05
2023-04-09T16:10:33.726Z,9.57
2023-04-09T16:13:03.637Z,8.77
2023-04-09T16:15:34.488Z,9.52
2023-04-09T16:18:04.783Z,14.20
2023-04-09T16:20:35.416Z,10.30
2023-04-09T16:23:07.837Z,10.70
2023-04-09T16:25:39.019Z,10.63
2023-04-09T16:28:14.268Z,12.40
2023-04-09T16:33:14.462Z,11.57
2023-04-09T16:35:43.969Z,11.15
2023-04-09T16:38:14.061Z,11.95
2023-04-09T16:40:44.657Z,12.30
2023-04-09T16:43:14.671Z,13.40
2023-04-09T16:45:47.195Z,11.70
2023-04-09T16:48:33.354Z,12.50
2023-04-09T16:51:02.646Z,11.43
2023-04-09T16:53:31.761Z,12.70
2023-04-09T16:56:02.359Z,12.70
2023-04-09T16:58:33.694Z,12.32
2023-04-09T17:01:06.806Z,13.10
2023-04-09T17:03:37.980Z,12.68
2023-04-09T17:06:09.447Z,13.07
2023-04-09T17:08:40.755Z,12.70
2023-04-09T17:11:11.794Z,12.75
2023-04-09T17:13:41.203Z,12.73
2023-04-09T17:16:11.498Z,12.13
2023-04-09T17:18:41.620Z,11.60
2023-04-09T17:21:10.973Z,11.52
2023-04-09T17:23:43.283Z,12.55
2023-04-09T17:26:14.329Z,11.48
2023-04-09T17:28:48.142Z,12.15
2023-04-09T17:31:20.956Z,10.25
2023-04-09T17:34:05.066Z,10.30
2023-04-09T17:36:34.772Z,11.00
2023-04-09T17:39:16.886Z,10.25
2023-04-09T17:41:48.435Z,12.25
2023-04-09T17:44:20.243Z,10.45
2023-04-09T17:46:54.366Z,10.43
2023-04-09T17:49:27.995Z,10.68
2023-04-09T17:51:59.358Z,10.80
2023-04-09T17:54:33.869Z,10.65
2023-04-09T17:57:07.376Z,11.00
2023-04-09T17:59:38.013Z,11.00
2023-04-09T18:02:09.417Z,10.88
2023-04-09T18:04:39.761Z,11.55
2023-04-09T18:07:10.341Z,10.55
2023-04-09T18:09:43.331Z,10.75
2023-04-09T18:12:13.227Z,11.35
2023-04-09T18:14:44.328Z,11.68
2023-04-09T18:17:15.830Z,11.43
2023-04-09T18:19:46.499Z,11.40
2023-04-09T18:22:16.941Z,11.05
2023-04-09T18:24:45.453Z,12.05
2023-04-09T18:27:14.603Z,11.70
2023-04-09T18:29:43.916Z,12.35
2023-04-09T18:32:15.256Z,16.50
2023-04-09T18:34:47.237Z,13.52
2023-04-09T18:37:18.685Z,12.88
2023-04-09T18:39:48.163Z,13.80
2023-04-09T18:42:16.918Z,15.38
2023-04-09T18:44:46.060Z,13.52
2023-04-09T18:47:16.934Z,14.50
2023-04-09T18:49:49.411Z,12.90
2023-04-09T18:52:28.910Z,14.38
2023-04-09T18:54:59.876Z,12.75
2023-04-09T18:57:43.738Z,12.32
2023-04-09T19:00:16.878Z,14.70
2023-04-09T19:02:50.398Z,35.03
2023-04-09T19:05:23.715Z,32.47
2023-04-09T19:07:55.533Z,15.80
2023-04-09T19:10:24.884Z,13.35
2023-04-09T19:12:56.649Z,11.95
2023-04-09T19:15:35.205Z,12.52
2023-04-09T19:18:05.711Z,13.07
2023-04-09T19:20:48.232Z,11.88
2023-04-09T19:23:22.856Z,13.00
2023-04-09T19:25:55.787Z,12.90
2023-04-09T19:28:29.648Z,12.98
2023-04-09T19:31:12.405Z,12.00
2023-04-09T19:33:43.156Z,13.25
2023-04-09T19:36:23.638Z,12.68
2023-04-09T19:38:56.591Z,13.07
2023-04-09T19:41:26.365Z,14.15
2023-04-09T19:43:56.094Z,13.65
2023-04-09T19:46:26.317Z,13.60
2023-04-09T19:48:57.637Z,16.75
2023-04-09T19:51:31.597Z,15.70
2023-04-09T19:54:08.250Z,14.93
2023-04-09T19:56:47.397Z,14.40
2023-04-09T19:59:21.584Z,14.98
2023-04-09T20:02:01.779Z,14.52
2023-04-09T20:04:33.865Z,16.25
2023-04-09T20:07:06.302Z,21.02
2023-04-09T20:09:44.808Z,15.35
2023-04-09T20:12:17.585Z,26.15
2023-04-09T20:14:58.884Z,17.55
2023-04-09T20:17:34.192Z,18.25
2023-04-09T20:20:15.566Z,17.80
2023-04-09T20:22:48.229Z,18.55
2023-04-09T20:25:17.113Z,20.58
2023-04-09T20:27:46.229Z,17.33
2023-04-09T20:30:16.901Z,17.33
2023-04-09T20:32:45.864Z,23.13
2023-04-09T20:35:17.779Z,21.58
2023-04-09T20:37:49.935Z,18.75
2023-04-09T20:40:22.565Z,18.50
2023-04-09T20:42:52.926Z,16.98
2023-04-09T20:45:21.846Z,18.60
2023-04-09T20:47:52.139Z,17.75
2023-04-09T20:50:21.262Z,17.17
2023-04-09T20:52:51.306Z,16.88
2023-04-09T20:55:20.498Z,15.70
2023-04-09T20:57:49.189Z,16.25
2023-04-09T21:00:19.991Z,15.27
2023-04-09T21:02:51.102Z,14.88
2023-04-09T21:05:23.814Z,15.85
2023-04-09T21:07:57.130Z,16.60
2023-04-09T21:10:26.161Z,16.50
2023-04-09T21:12:54.943Z,17.85
2023-04-09T21:15:24.157Z,14.85
2023-04-09T21:17:53.116Z,17.13
2023-04-09T21:20:22.627Z,15.30
2023-04-09T21:22:52.288Z,15.95
2023-04-09T21:25:23.282Z,16.98
2023-04-09T21:27:52.216Z,15.38
2023-04-09T21:30:21.259Z,14.32
2023-04-09T21:32:59.455Z,15.02
2023-04-09T21:35:29.197Z,16.85
2023-04-09T21:37:58.455Z,16.80
2023-04-09T21:40:31.205Z,19.13
2023-04-09T21:43:01.779Z,18.20
2023-04-09T21:45:43.074Z,17.55
2023-04-09T21:48:12.539Z,18.48
2023-04-09T21:50:42.237Z,18.50
2023-04-09T21:53:12.114Z,20.08
2023-04-09T21:55:42.587Z,21.42
2023-04-09T21:58:12.408Z,24.15
2023-04-09T22:00:41.622Z,17.83
2023-04-09T22:03:11.923Z,18.55
2023-04-09T22:05:41.046Z,18.42
2023-04-09T22:08:09.837Z,18.00
2023-04-09T22:10:38.380Z,21.50
2023-04-09T22:13:09.456Z,20.63
2023-04-09T22:15:38.217Z,19.70
2023-04-09T22:18:07.059Z,21.17
2023-04-09T22:20:43.666Z,19.70
2023-04-09T22:23:12.826Z,19.10
2023-04-09T22:25:42.564Z,20.33
2023-04-09T22:28:14.591Z,24.63
2023-04-09T22:30:43.100Z,22.35
2023-04-09T22:33:12.405Z,20.23
2023-04-09T22:35:42.188Z,19.98
2023-04-09T22:38:14.483Z,24.95
2023-04-09T22:40:43.555Z,20.85
2023-04-09T22:43:14.131Z,18.85
2023-04-09T22:45:43.460Z,18.52
2023-04-09T22:48:14.106Z,19.33
2023-04-09T22:50:44.173Z,18.20
2023-04-09T22:53:13.207Z,19.60
2023-04-09T22:55:47.363Z,17.48
2023-04-09T22:58:19.196Z,18.70
2023-04-09T23:00:49.809Z,20.08
2023-04-09T23:03:23.086Z,20.33
2023-04-09T23:05:52.227Z,25.80
2023-04-09T23:08:21.225Z,20.92
2023-04-09T23:10:52.569Z,20.80
2023-04-09T23:13:22.898Z,21.73
2023-04-09T23:15:52.372Z,23.55
2023-04-09T23:18:21.602Z,25.38
2023-04-09T23:20:50.917Z,21.48
2023-04-09T23:23:19.266Z,20.38
2023-04-09T23:25:48.816Z,22.75
2023-04-09T23:28:18.554Z,22.50
2023-04-09T23:30:48.451Z,22.02
2023-04-09T23:33:16.880Z,23.15
2023-04-09T23:35:45.622Z,21.73
2023-04-09T23:38:15.511Z,20.85
2023-04-09T23:40:47.475Z,22.10
2023-04-09T23:43:20.255Z,19.65
2023-04-09T23:45:52.006Z,20.70
2023-04-09T23:48:24.641Z,21.20
2023-04-09T23:50:55.719Z,20.48
2023-04-09T23:53:24.694Z,19.33
2023-04-09T23:55:53.936Z,20.27
2023-04-09T23:58:23.431Z,20.58
